sensor_id;sensor_type;location;lat;lon;timestamp;pressure;altitude;pressure_sealevel;temperature;humidity
42067;BME280;27734;47.028;28.820;2022-09-03T00:01:49;100773.11;;;17.73;55.36
42067;BME280;27734;47.028;28.820;2022-09-03T00:04:26;100773.14;;;17.76;55.42
42067;BME280;27734;47.028;28.820;2022-09-03T00:07:02;100774.93;;;17.77;55.45
42067;BME280;27734;47.028;28.820;2022-09-03T00:09:40;100773.09;;;17.71;55.28
42067;BME280;27734;47.028;28.820;2022-09-03T00:12:16;100784.58;;;17.69;56.06
42067;BME280;27734;47.028;28.820;2022-09-03T00:14:52;100787.16;;;17.63;56.07
42067;BME280;27734;47.028;28.820;2022-09-03T00:17:28;100785.32;;;17.57;56.10
42067;BME280;27734;47.028;28.820;2022-09-03T00:20:07;100794.09;;;17.51;56.49
42067;BME280;27734;47.028;28.820;2022-09-03T00:22:45;100790.46;;;17.43;56.32
42067;BME280;27734;47.028;28.820;2022-09-03T00:25:22;100794.81;;;17.36;56.87
42067;BME280;27734;47.028;28.820;2022-09-03T00:27:57;100800.02;;;17.29;56.78
42067;BME280;27734;47.028;28.820;2022-09-03T00:30:30;100804.34;;;17.20;57.09
42067;BME280;27734;47.028;28.820;2022-09-03T00:33:07;100814.86;;;17.14;56.94
42067;BME280;27734;47.028;28.820;2022-09-03T00:35:43;100815.63;;;17.07;57.90
42067;BME280;27734;47.028;28.820;2022-09-03T00:38:16;100818.23;;;17.04;57.75
42067;BME280;27734;47.028;28.820;2022-09-03T00:40:58;100822.59;;;16.99;57.74
42067;BME280;27734;47.028;28.820;2022-09-03T00:43:43;100811.92;;;16.94;58.76
42067;BME280;27734;47.028;28.820;2022-09-03T00:46:22;100821.49;;;16.86;58.45
42067;BME280;27734;47.028;28.820;2022-09-03T00:49:20;100820.48;;;16.79;58.88
42067;BME280;27734;47.028;28.820;2022-09-03T00:52:00;100821.38;;;16.78;58.82
42067;BME280;27734;47.028;28.820;2022-09-03T00:54:45;100816.93;;;16.77;59.35
42067;BME280;27734;47.028;28.820;2022-09-03T00:57:27;100816.88;;;16.74;59.99
42067;BME280;27734;47.028;28.820;2022-09-03T01:00:05;100815.04;;;16.70;59.73
42067;BME280;27734;47.028;28.820;2022-09-03T01:02:46;100806.16;;;16.66;60.45
42067;BME280;27734;47.028;28.820;2022-09-03T01:05:29;100814.04;;;16.62;60.61
42067;BME280;27734;47.028;28.820;2022-09-03T01:08:23;100814.89;;;16.61;60.12
42067;BME280;27734;47.028;28.820;2022-09-03T01:11:08;100813.09;;;16.57;60.48
42067;BME280;27734;47.028;28.820;2022-09-03T01:13:45;100812.12;;;16.53;60.61
42067;BME280;27734;47.028;28.820;2022-09-03T01:16:28;100814.74;;;16.51;61.21
42067;BME280;27734;47.028;28.820;2022-09-03T01:19:08;100807.71;;;16.52;60.89
42067;BME280;27734;47.028;28.820;2022-09-03T01:22:00;100806.80;;;16.51;60.90
42067;BME280;27734;47.028;28.820;2022-09-03T01:24:50;100802.31;;;16.46;61.38
42067;BME280;27734;47.028;28.820;2022-09-03T01:27:40;100809.29;;;16.42;61.02
42067;BME280;27734;47.028;28.820;2022-09-03T01:30:17;100806.59;;;16.39;61.22
42067;BME280;27734;47.028;28.820;2022-09-03T01:32:52;100809.19;;;16.36;61.43
42067;BME280;27734;47.028;28.820;2022-09-03T01:35:31;100800.39;;;16.37;61.67
42067;BME280;27734;47.028;28.820;2022-09-03T01:38:13;100795.97;;;16.38;61.57
42067;BME280;27734;47.028;28.820;2022-09-03T01:40:57;100785.36;;;16.36;62.12
42067;BME280;27734;47.028;28.820;2022-09-03T01:43:58;100775.55;;;16.29;62.47
42067;BME280;27734;47.028;28.820;2022-09-03T01:46:36;100784.29;;;16.25;62.08
42067;BME280;27734;47.028;28.820;2022-09-03T01:49:17;100774.64;;;16.27;62.69
42067;BME280;27734;47.028;28.820;2022-09-03T01:51:58;100777.23;;;16.24;62.09
42067;BME280;27734;47.028;28.820;2022-09-03T01:54:43;100774.53;;;16.21;61.87
42067;BME280;27734;47.028;28.820;2022-09-03T01:57:44;100774.52;;;16.19;62.99
42067;BME280;27734;47.028;28.820;2022-09-03T02:00:17;100776.24;;;16.18;61.95
42067;BME280;27734;47.028;28.820;2022-09-03T02:02:51;100771.86;;;16.19;62.13
42067;BME280;27734;47.028;28.820;2022-09-03T02:05:24;100777.19;;;16.21;62.73
42067;BME280;27734;47.028;28.820;2022-09-03T02:07:58;100779.86;;;16.22;63.14
42067;BME280;27734;47.028;28.820;2022-09-03T02:10:33;100781.64;;;16.25;63.16
42067;BME280;27734;47.028;28.820;2022-09-03T02:13:11;100779.94;;;16.27;63.63
42067;BME280;27734;47.028;28.820;2022-09-03T02:15:45;100776.34;;;16.25;63.66
42067;BME280;27734;47.028;28.820;2022-09-03T02:18:20;100776.32;;;16.23;63.33
42067;BME280;27734;47.028;28.820;2022-09-03T02:20:54;100777.23;;;16.24;63.04
42067;BME280;27734;47.028;28.820;2022-09-03T02:23:26;100778.09;;;16.23;63.61
42067;BME280;27734;47.028;28.820;2022-09-03T02:25:58;100786.03;;;16.23;63.50
42067;BME280;27734;47.028;28.820;2022-09-03T02:28:32;100786.78;;;16.15;63.19
42067;BME280;27734;47.028;28.820;2022-09-03T02:31:03;100787.59;;;16.10;63.74
42067;BME280;27734;47.028;28.820;2022-09-03T02:33:37;100788.33;;;16.03;63.04
42067;BME280;27734;47.028;28.820;2022-09-03T02:36:13;100787.36;;;15.97;63.55
42067;BME280;27734;47.028;28.820;2022-09-03T02:38:45;100781.05;;;15.91;63.50
42067;BME280;27734;47.028;28.820;2022-09-03T02:41:17;100793.36;;;15.89;63.93
42067;BME280;27734;47.028;28.820;2022-09-03T02:43:50;100795.05;;;15.84;63.54
42067;BME280;27734;47.028;28.820;2022-09-03T02:46:26;100805.51;;;15.77;63.70
42067;BME280;27734;47.028;28.820;2022-09-03T02:48:59;100806.27;;;15.73;63.30
42067;BME280;27734;47.028;28.820;2022-09-03T02:51:34;100808.03;;;15.73;63.97
42067;BME280;27734;47.028;28.820;2022-09-03T02:54:06;100806.11;;;15.66;64.00
42067;BME280;27734;47.028;28.820;2022-09-03T02:56:37;100813.95;;;15.61;63.75
42067;BME280;27734;47.028;28.820;2022-09-03T02:59:09;100807.66;;;15.54;62.99
42067;BME280;27734;47.028;28.820;2022-09-03T03:01:40;100807.59;;;15.51;63.49
42067;BME280;27734;47.028;28.820;2022-09-03T03:04:11;100799.63;;;15.50;63.60
42067;BME280;27734;47.028;28.820;2022-09-03T03:06:43;100800.52;;;15.50;64.61
42067;BME280;27734;47.028;28.820;2022-09-03T03:09:14;100812.00;;;15.51;64.48
42067;BME280;27734;47.028;28.820;2022-09-03T03:11:45;100802.24;;;15.48;64.49
42067;BME280;27734;47.028;28.820;2022-09-03T03:14:20;100803.00;;;15.42;64.53
42067;BME280;27734;47.028;28.820;2022-09-03T03:16:51;100797.64;;;15.39;63.66
42067;BME280;27734;47.028;28.820;2022-09-03T03:19:22;100802.73;;;15.30;63.57
42067;BME280;27734;47.028;28.820;2022-09-03T03:21:54;100803.52;;;15.24;63.92
42067;BME280;27734;47.028;28.820;2022-09-03T03:24:25;100799.93;;;15.21;64.08
42067;BME280;27734;47.028;28.820;2022-09-03T03:26:57;100801.53;;;15.14;64.73
42067;BME280;27734;47.028;28.820;2022-09-03T03:29:29;100804.95;;;15.08;63.96
42067;BME280;27734;47.028;28.820;2022-09-03T03:32:06;100798.68;;;15.05;63.88
42067;BME280;27734;47.028;28.820;2022-09-03T03:34:40;100800.34;;;15.00;64.82
42067;BME280;27734;47.028;28.820;2022-09-03T03:37:11;100796.78;;;14.98;64.35
42067;BME280;27734;47.028;28.820;2022-09-03T03:39:42;100788.81;;;14.96;65.03
42067;BME280;27734;47.028;28.820;2022-09-03T03:42:13;100788.78;;;14.95;65.04
42067;BME280;27734;47.028;28.820;2022-09-03T03:44:44;100787.87;;;14.94;64.79
42067;BME280;27734;47.028;28.820;2022-09-03T03:47:15;100791.36;;;14.91;64.50
42067;BME280;27734;47.028;28.820;2022-09-03T03:49:47;100787.73;;;14.88;64.63
42067;BME280;27734;47.028;28.820;2022-09-03T03:52:18;100788.58;;;14.85;64.26
42067;BME280;27734;47.028;28.820;2022-09-03T03:54:51;100798.27;;;14.86;65.03
42067;BME280;27734;47.028;28.820;2022-09-03T03:57:23;100796.50;;;14.85;65.36
42067;BME280;27734;47.028;28.820;2022-09-03T03:59:54;100803.51;;;14.85;64.90
42067;BME280;27734;47.028;28.820;2022-09-03T04:02:25;100808.79;;;14.85;65.10
42067;BME280;27734;47.028;28.820;2022-09-03T04:04:57;100806.15;;;14.85;64.46
42067;BME280;27734;47.028;28.820;2022-09-03T04:07:29;100814.99;;;14.85;65.82
42067;BME280;27734;47.028;28.820;2022-09-03T04:10:00;100814.08;;;14.85;65.61
42067;BME280;27734;47.028;28.820;2022-09-03T04:12:31;100816.75;;;14.86;65.28
42067;BME280;27734;47.028;28.820;2022-09-03T04:15:02;100817.70;;;14.88;65.77
42067;BME280;27734;47.028;28.820;2022-09-03T04:17:35;100815.06;;;14.88;65.70
42067;BME280;27734;47.028;28.820;2022-09-03T04:20:07;100819.54;;;14.92;65.99
42067;BME280;27734;47.028;28.820;2022-09-03T04:22:38;100814.36;;;14.97;66.10
42067;BME280;27734;47.028;28.820;2022-09-03T04:25:10;100819.68;;;14.99;65.09
42067;BME280;27734;47.028;28.820;2022-09-03T04:27:41;100818.88;;;15.01;65.85
42067;BME280;27734;47.028;28.820;2022-09-03T04:30:13;100821.52;;;15.01;65.36
42067;BME280;27734;47.028;28.820;2022-09-03T04:32:45;100818.91;;;15.03;65.40
42067;BME280;27734;47.028;28.820;2022-09-03T04:35:26;100826.87;;;15.04;66.26
42067;BME280;27734;47.028;28.820;2022-09-03T04:37:58;100825.07;;;15.03;65.97
42067;BME280;27734;47.028;28.820;2022-09-03T04:40:30;100825.11;;;15.05;65.67
42067;BME280;27734;47.028;28.820;2022-09-03T04:43:01;100833.95;;;15.05;66.05
42067;BME280;27734;47.028;28.820;2022-09-03T04:45:33;100832.16;;;15.04;66.29
42067;BME280;27734;47.028;28.820;2022-09-03T04:48:05;100834.83;;;15.06;65.71
42067;BME280;27734;47.028;28.820;2022-09-03T04:50:39;100832.22;;;15.07;65.36
42067;BME280;27734;47.028;28.820;2022-09-03T04:53:10;100830.42;;;15.06;65.29
42067;BME280;27734;47.028;28.820;2022-09-03T04:55:44;100826.09;;;15.08;65.37
42067;BME280;27734;47.028;28.820;2022-09-03T04:58:15;100841.06;;;15.09;66.34
42067;BME280;27734;47.028;28.820;2022-09-03T05:00:46;100839.30;;;15.08;66.23
42067;BME280;27734;47.028;28.820;2022-09-03T05:03:17;100838.42;;;15.09;65.29
42067;BME280;27734;47.028;28.820;2022-09-03T05:05:55;100843.74;;;15.11;66.10
42067;BME280;27734;47.028;28.820;2022-09-03T05:08:26;100842.05;;;15.13;66.17
42067;BME280;27734;47.028;28.820;2022-09-03T05:11:00;100848.22;;;15.14;65.33
42067;BME280;27734;47.028;28.820;2022-09-03T05:13:34;100845.61;;;15.15;65.13
42067;BME280;27734;47.028;28.820;2022-09-03T05:16:08;100855.34;;;15.16;65.15
42067;BME280;27734;47.028;28.820;2022-09-03T05:18:39;100850.09;;;15.18;65.42
42067;BME280;27734;47.028;28.820;2022-09-03T05:21:12;100848.39;;;15.21;65.57
42067;BME280;27734;47.028;28.820;2022-09-03T05:23:45;100842.22;;;15.21;65.20
42067;BME280;27734;47.028;28.820;2022-09-03T05:26:18;100848.50;;;15.26;66.09
42067;BME280;27734;47.028;28.820;2022-09-03T05:28:54;100852.97;;;15.30;65.85
42067;BME280;27734;47.028;28.820;2022-09-03T05:31:29;100852.12;;;15.31;66.29
42067;BME280;27734;47.028;28.820;2022-09-03T05:34:02;100846.77;;;15.28;65.25
42067;BME280;27734;47.028;28.820;2022-09-03T05:36:36;100849.38;;;15.26;65.70
42067;BME280;27734;47.028;28.820;2022-09-03T05:39:09;100849.27;;;15.22;65.78
42067;BME280;27734;47.028;28.820;2022-09-03T05:41:42;100849.14;;;15.16;65.94
42067;BME280;27734;47.028;28.820;2022-09-03T05:44:13;100849.95;;;15.12;66.50
42067;BME280;27734;47.028;28.820;2022-09-03T05:46:44;100851.64;;;15.09;65.66
42067;BME280;27734;47.028;28.820;2022-09-03T05:49:15;100839.27;;;15.07;66.07
42067;BME280;27734;47.028;28.820;2022-09-03T05:51:47;100848.96;;;15.08;66.61
42067;BME280;27734;47.028;28.820;2022-09-03T05:54:18;100841.03;;;15.08;66.41
42067;BME280;27734;47.028;28.820;2022-09-03T05:56:49;100841.06;;;15.09;65.93
42067;BME280;27734;47.028;28.820;2022-09-03T05:59:20;100844.70;;;15.13;66.18
42067;BME280;27734;47.028;28.820;2022-09-03T06:01:52;100835.04;;;15.15;66.50
42067;BME280;27734;47.028;28.820;2022-09-03T06:04:23;100846.56;;;15.19;65.88
42067;BME280;27734;47.028;28.820;2022-09-03T06:06:56;100844.94;;;15.24;66.54
42067;BME280;27734;47.028;28.820;2022-09-03T06:09:27;100841.62;;;15.34;66.21
42067;BME280;27734;47.028;28.820;2022-09-03T06:11:58;100839.11;;;15.40;66.44
42067;BME280;27734;47.028;28.820;2022-09-03T06:14:29;100839.20;;;15.45;66.49
42067;BME280;27734;47.028;28.820;2022-09-03T06:17:00;100839.27;;;15.48;65.83
42067;BME280;27734;47.028;28.820;2022-09-03T06:19:34;100838.45;;;15.51;66.21
42067;BME280;27734;47.028;28.820;2022-09-03T06:22:06;100835.88;;;15.54;65.68
42067;BME280;27734;47.028;28.820;2022-09-03T06:24:37;100835.02;;;15.56;66.59
42067;BME280;27734;47.028;28.820;2022-09-03T06:27:08;100838.61;;;15.58;66.09
42067;BME280;27734;47.028;28.820;2022-09-03T06:29:39;100838.64;;;15.60;66.53
42067;BME280;27734;47.028;28.820;2022-09-03T06:32:10;100840.41;;;15.61;65.87
42067;BME280;27734;47.028;28.820;2022-09-03T06:34:41;100840.34;;;15.58;65.92
42067;BME280;27734;47.028;28.820;2022-09-03T06:37:12;100841.22;;;15.57;65.74
42067;BME280;27734;47.028;28.820;2022-09-03T06:39:43;100836.72;;;15.53;64.50
42067;BME280;27734;47.028;28.820;2022-09-03T06:42:15;100834.02;;;15.50;64.56
42067;BME280;27734;47.028;28.820;2022-09-03T06:44:46;100837.57;;;15.52;64.79
42067;BME280;27734;47.028;28.820;2022-09-03T06:47:17;100841.19;;;15.55;65.11
42067;BME280;27734;47.028;28.820;2022-09-03T06:49:49;100834.98;;;15.55;64.92
42067;BME280;27734;47.028;28.820;2022-09-03T06:52:20;100842.98;;;15.58;65.26
42067;BME280;27734;47.028;28.820;2022-09-03T06:54:52;100840.34;;;15.58;65.01
42067;BME280;27734;47.028;28.820;2022-09-03T06:57:24;100838.64;;;15.60;65.79
42067;BME280;27734;47.028;28.820;2022-09-03T06:59:55;100838.67;;;15.61;65.61
42067;BME280;27734;47.028;28.820;2022-09-03T07:02:27;100837.80;;;15.62;64.67
42067;BME280;27734;47.028;28.820;2022-09-03T07:04:59;100844.00;;;15.63;64.95
42067;BME280;27734;47.028;28.820;2022-09-03T07:07:30;100845.80;;;15.66;65.61
42067;BME280;27734;47.028;28.820;2022-09-03T07:10:02;100841.52;;;15.71;65.35
42067;BME280;27734;47.028;28.820;2022-09-03T07:12:33;100835.42;;;15.76;65.71
42067;BME280;27734;47.028;28.820;2022-09-03T07:15:08;100842.48;;;15.76;65.18
42067;BME280;27734;47.028;28.820;2022-09-03T07:17:39;100831.84;;;15.73;65.72
42067;BME280;27734;47.028;28.820;2022-09-03T07:20:12;100836.19;;;15.69;65.35
42067;BME280;27734;47.028;28.820;2022-09-03T07:22:43;100830.84;;;15.66;65.02
42067;BME280;27734;47.028;28.820;2022-09-03T07:25:15;100834.36;;;15.67;65.12
42067;BME280;27734;47.028;28.820;2022-09-03T07:27:46;100836.16;;;15.68;65.31
42067;BME280;27734;47.028;28.820;2022-09-03T07:30:19;100833.52;;;15.68;65.15
42067;BME280;27734;47.028;28.820;2022-09-03T07:32:50;100835.27;;;15.69;65.21
42067;BME280;27734;47.028;28.820;2022-09-03T07:35:22;100839.78;;;15.73;65.76
42067;BME280;27734;47.028;28.820;2022-09-03T07:37:54;100845.09;;;15.74;65.54
42067;BME280;27734;47.028;28.820;2022-09-03T07:40:25;100842.45;;;15.74;66.01
42067;BME280;27734;47.028;28.820;2022-09-03T07:42:58;100844.31;;;15.77;65.55
42067;BME280;27734;47.028;28.820;2022-09-03T07:45:32;100840.78;;;15.78;65.55
42067;BME280;27734;47.028;28.820;2022-09-03T07:48:03;100841.57;;;15.74;65.73
42067;BME280;27734;47.028;28.820;2022-09-03T07:50:35;100847.94;;;15.82;65.94
42067;BME280;27734;47.028;28.820;2022-09-03T07:53:11;100847.91;;;15.80;65.57
42067;BME280;27734;47.028;28.820;2022-09-03T07:55:42;100853.13;;;15.77;66.14
42067;BME280;27734;47.028;28.820;2022-09-03T07:58:13;100854.02;;;15.78;65.67
42067;BME280;27734;47.028;28.820;2022-09-03T08:00:45;100845.12;;;15.76;66.11
42067;BME280;27734;47.028;28.820;2022-09-03T08:03:17;100851.18;;;15.70;66.41
42067;BME280;27734;47.028;28.820;2022-09-03T08:05:48;100853.73;;;15.66;67.49
42067;BME280;27734;47.028;28.820;2022-09-03T08:08:19;100849.98;;;15.54;67.89
42067;BME280;27734;47.028;28.820;2022-09-03T08:10:50;100851.64;;;15.49;66.68
42067;BME280;27734;47.028;28.820;2022-09-03T08:13:25;100859.48;;;15.44;66.83
42067;BME280;27734;47.028;28.820;2022-09-03T08:15:57;100863.81;;;15.42;67.04
42067;BME280;27734;47.028;28.820;2022-09-03T08:18:30;100861.11;;;15.39;67.84
42067;BME280;27734;47.028;28.820;2022-09-03T08:21:08;100874.19;;;15.33;67.89
42067;BME280;27734;47.028;28.820;2022-09-03T08:23:42;100867.92;;;15.28;67.60
42067;BME280;27734;47.028;28.820;2022-09-03T08:26:14;100866.16;;;15.27;67.33
42067;BME280;27734;47.028;28.820;2022-09-03T08:28:45;100871.44;;;15.27;68.45
42067;BME280;27734;47.028;28.820;2022-09-03T08:31:19;100870.56;;;15.28;67.55
42067;BME280;27734;47.028;28.820;2022-09-03T08:33:52;100867.00;;;15.26;67.36
42067;BME280;27734;47.028;28.820;2022-09-03T08:36:25;100869.58;;;15.23;67.52
42067;BME280;27734;47.028;28.820;2022-09-03T08:38:59;100860.59;;;15.15;68.39
42067;BME280;27734;47.028;28.820;2022-09-03T08:41:44;100873.14;;;15.25;68.38
42067;BME280;27734;47.028;28.820;2022-09-03T08:44:24;100867.84;;;15.25;68.93
42067;BME280;27734;47.028;28.820;2022-09-03T08:47:04;100873.20;;;15.28;68.99
42067;BME280;27734;47.028;28.820;2022-09-03T08:49:45;100871.48;;;15.30;68.55
42067;BME280;27734;47.028;28.820;2022-09-03T08:52:27;100867.98;;;15.31;69.45
42067;BME280;27734;47.028;28.820;2022-09-03T08:55:12;100874.16;;;15.32;69.02
42067;BME280;27734;47.028;28.820;2022-09-03T08:57:49;100871.61;;;15.36;69.22
42067;BME280;27734;47.028;28.820;2022-09-03T09:00:21;100880.56;;;15.41;68.35
42067;BME280;27734;47.028;28.820;2022-09-03T09:03:03;100869.11;;;15.42;69.59
42067;BME280;27734;47.028;28.820;2022-09-03T09:05:45;100873.00;;;15.58;68.67
42067;BME280;27734;47.028;28.820;2022-09-03T09:08:26;100872.28;;;15.67;69.87
42067;BME280;27734;47.028;28.820;2022-09-03T09:11:04;100874.23;;;15.76;69.46
42067;BME280;27734;47.028;28.820;2022-09-03T09:13:43;100866.39;;;15.79;69.39
42067;BME280;27734;47.028;28.820;2022-09-03T09:16:22;100863.72;;;15.77;69.65
42067;BME280;27734;47.028;28.820;2022-09-03T09:19:07;100859.34;;;15.79;69.70
42067;BME280;27734;47.028;28.820;2022-09-03T09:21:43;100857.57;;;15.78;69.26
42067;BME280;27734;47.028;28.820;2022-09-03T09:24:20;100856.69;;;15.79;69.70
42067;BME280;27734;47.028;28.820;2022-09-03T09:26:56;100847.69;;;15.71;69.54
42067;BME280;27734;47.028;28.820;2022-09-03T09:29:34;100846.80;;;15.71;69.60
42067;BME280;27734;47.028;28.820;2022-09-03T09:32:08;100844.22;;;15.74;70.10
42067;BME280;27734;47.028;28.820;2022-09-03T09:34:40;100845.20;;;15.77;69.55
42067;BME280;27734;47.028;28.820;2022-09-03T09:37:13;100833.79;;;15.80;69.55
42067;BME280;27734;47.028;28.820;2022-09-03T09:39:56;100832.91;;;15.81;69.61
42067;BME280;27734;47.028;28.820;2022-09-03T09:42:28;100836.44;;;15.81;69.71
42067;BME280;27734;47.028;28.820;2022-09-03T09:45:10;100832.94;;;15.83;69.73
42067;BME280;27734;47.028;28.820;2022-09-03T09:47:41;100827.73;;;15.87;69.65
42067;BME280;27734;47.028;28.820;2022-09-03T09:50:18;100827.83;;;15.92;69.94
42067;BME280;27734;47.028;28.820;2022-09-03T09:53:00;100823.38;;;15.91;69.17
42067;BME280;27734;47.028;28.820;2022-09-03T09:55:37;100819.86;;;15.90;69.47
42067;BME280;27734;47.028;28.820;2022-09-03T09:58:19;100823.30;;;15.86;69.62
42067;BME280;27734;47.028;28.820;2022-09-03T10:00:59;100827.70;;;15.86;69.12
42067;BME280;27734;47.028;28.820;2022-09-03T10:03:34;100828.62;;;15.88;69.31
42067;BME280;27734;47.028;28.820;2022-09-03T10:06:05;100840.09;;;15.87;69.09
42067;BME280;27734;47.028;28.820;2022-09-03T10:09:06;100828.47;;;15.78;69.01
42067;BME280;27734;47.028;28.820;2022-09-03T10:11:39;100828.31;;;15.72;69.25
42067;BME280;27734;47.028;28.820;2022-09-03T10:14:18;100830.96;;;15.72;69.63
42067;BME280;27734;47.028;28.820;2022-09-03T10:16:59;100830.92;;;15.71;69.56
42067;BME280;27734;47.028;28.820;2022-09-03T10:19:42;100832.69;;;15.72;69.72
42067;BME280;27734;47.028;28.820;2022-09-03T10:22:40;100823.91;;;15.73;69.71
42067;BME280;27734;47.028;28.820;2022-09-03T10:25:16;100824.06;;;15.79;69.51
42067;BME280;27734;47.028;28.820;2022-09-03T10:27:47;100832.03;;;15.80;68.93
42067;BME280;27734;47.028;28.820;2022-09-03T10:30:22;100833.81;;;15.83;69.37
42067;BME280;27734;47.028;28.820;2022-09-03T10:33:03;100840.05;;;15.85;69.12
42067;BME280;27734;47.028;28.820;2022-09-03T10:35:41;100833.91;;;15.88;69.64
42067;BME280;27734;47.028;28.820;2022-09-03T10:38:19;100828.67;;;15.91;69.93
42067;BME280;27734;47.028;28.820;2022-09-03T10:41:01;100829.65;;;15.94;69.04
42067;BME280;27734;47.028;28.820;2022-09-03T10:44:03;100835.09;;;16.02;69.49
42067;BME280;27734;47.028;28.820;2022-09-03T10:46:47;100841.30;;;16.04;69.68
42067;BME280;27734;47.028;28.820;2022-09-03T10:49:33;100841.32;;;16.06;69.38
42067;BME280;27734;47.028;28.820;2022-09-03T10:52:11;100839.61;;;16.09;68.94
42067;BME280;27734;47.028;28.820;2022-09-03T10:54:53;100846.76;;;16.13;69.54
42067;BME280;27734;47.028;28.820;2022-09-03T10:57:34;100845.91;;;16.14;68.76
42067;BME280;27734;47.028;28.820;2022-09-03T11:00:13;100842.41;;;16.17;68.78
42067;BME280;27734;47.028;28.820;2022-09-03T11:05:57;100841.58;;;16.20;68.86
42067;BME280;27734;47.028;28.820;2022-09-03T11:08:35;100847.81;;;16.23;69.51
42067;BME280;27734;47.028;28.820;2022-09-03T11:11:12;100847.84;;;16.25;69.03
42067;BME280;27734;47.028;28.820;2022-09-03T11:13:52;100850.55;;;16.28;68.85
42067;BME280;27734;47.028;28.820;2022-09-03T11:16:30;100855.81;;;16.26;69.56
42067;BME280;27734;47.028;28.820;2022-09-03T11:19:04;100857.61;;;16.27;68.83
42067;BME280;27734;47.028;28.820;2022-09-03T11:21:38;100864.75;;;16.33;69.73
42067;BME280;27734;47.028;28.820;2022-09-03T11:24:10;100864.80;;;16.36;69.64
42067;BME280;27734;47.028;28.820;2022-09-03T11:26:44;100863.13;;;16.40;69.52
42067;BME280;27734;47.028;28.820;2022-09-03T11:29:22;100867.56;;;16.42;69.15
42067;BME280;27734;47.028;28.820;2022-09-03T11:32:03;100870.20;;;16.42;69.53
42067;BME280;27734;47.028;28.820;2022-09-03T11:34:47;100870.20;;;16.42;69.55
42067;BME280;27734;47.028;28.820;2022-09-03T11:37:21;100870.20;;;16.42;69.04
42067;BME280;27734;47.028;28.820;2022-09-03T11:39:57;100870.20;;;16.42;69.11
42067;BME280;27734;47.028;28.820;2022-09-03T11:42:31;100873.80;;;16.44;69.71
42067;BME280;27734;47.028;28.820;2022-09-03T11:45:22;100861.44;;;16.45;69.91
42067;BME280;27734;47.028;28.820;2022-09-03T11:47:54;100860.58;;;16.46;69.93
42067;BME280;27734;47.028;28.820;2022-09-03T11:50:27;100863.26;;;16.47;69.26
42067;BME280;27734;47.028;28.820;2022-09-03T11:53:10;100862.38;;;16.48;69.58
42067;BME280;27734;47.028;28.820;2022-09-03T11:55:54;100865.02;;;16.48;69.24
42067;BME280;27734;47.028;28.820;2022-09-03T11:58:30;100854.39;;;16.47;69.90
42067;BME280;27734;47.028;28.820;2022-09-03T12:01:08;100857.02;;;16.45;69.54
42067;BME280;27734;47.028;28.820;2022-09-03T12:03:44;100862.29;;;16.44;70.17
42067;BME280;27734;47.028;28.820;2022-09-03T12:06:45;100860.58;;;16.46;70.12
42067;BME280;27734;47.028;28.820;2022-09-03T12:12:29;100852.61;;;16.44;70.50
42067;BME280;27734;47.028;28.820;2022-09-03T12:15:07;100856.05;;;16.40;70.18
42067;BME280;27734;47.028;28.820;2022-09-03T12:17:49;100855.07;;;16.33;69.74
42067;BME280;27734;47.028;28.820;2022-09-03T12:20:42;100846.13;;;16.27;70.05
42067;BME280;27734;47.028;28.820;2022-09-03T12:23:24;100849.58;;;16.23;70.32
42067;BME280;27734;47.028;28.820;2022-09-03T12:25:58;100845.08;;;16.18;69.65
42067;BME280;27734;47.028;28.820;2022-09-03T12:28:33;100846.76;;;16.13;70.54
42067;BME280;27734;47.028;28.820;2022-09-03T12:31:13;100844.97;;;16.12;70.13
42067;BME280;27734;47.028;28.820;2022-09-03T12:33:52;100845.80;;;16.08;69.64
42067;BME280;27734;47.028;28.820;2022-09-03T12:36:24;100843.14;;;16.08;70.65
42067;BME280;27734;47.028;28.820;2022-09-03T12:38:55;100851.09;;;16.08;70.86
42067;BME280;27734;47.028;28.820;2022-09-03T12:41:37;100839.55;;;16.06;69.99
42067;BME280;27734;47.028;28.820;2022-09-03T12:44:10;100844.82;;;16.05;70.89
42067;BME280;27734;47.028;28.820;2022-09-03T12:46:42;100846.61;;;16.06;70.48
42067;BME280;27734;47.028;28.820;2022-09-03T12:49:15;100849.30;;;16.07;70.72
42067;BME280;27734;47.028;28.820;2022-09-03T12:51:47;100854.67;;;16.12;70.83
42067;BME280;27734;47.028;28.820;2022-09-03T12:54:18;100851.20;;;16.14;70.72
42067;BME280;27734;47.028;28.820;2022-09-03T12:56:54;100851.20;;;16.14;71.04
42067;BME280;27734;47.028;28.820;2022-09-03T12:59:30;100853.84;;;16.14;70.99
42067;BME280;27734;47.028;28.820;2022-09-03T13:02:05;100857.31;;;16.12;71.76
42067;BME280;27734;47.028;28.820;2022-09-03T13:04:43;100856.41;;;16.10;71.10
42067;BME280;27734;47.028;28.820;2022-09-03T13:07:23;100855.44;;;16.06;71.81
42067;BME280;27734;47.028;28.820;2022-09-03T13:10:05;100851.85;;;16.03;71.00
42067;BME280;27734;47.028;28.820;2022-09-03T13:12:43;100863.29;;;16.02;70.98
42067;BME280;27734;47.028;28.820;2022-09-03T13:15:21;100857.11;;;16.01;71.30
42067;BME280;27734;47.028;28.820;2022-09-03T13:18:07;100859.64;;;15.95;71.04
42067;BME280;27734;47.028;28.820;2022-09-03T13:20:49;100870.17;;;15.92;71.79
42067;BME280;27734;47.028;28.820;2022-09-03T13:23:30;100865.60;;;15.85;71.66
42067;BME280;27734;47.028;28.820;2022-09-03T13:26:11;100864.47;;;15.73;71.21
42067;BME280;27734;47.028;28.820;2022-09-03T13:29:00;100869.62;;;15.67;70.30
42067;BME280;27734;47.028;28.820;2022-09-03T13:31:42;100871.39;;;15.67;70.71